createdAt,value
2023-05-14T00:00:30.075Z,97755.75
2023-05-14T00:02:57.010Z,97761.91
2023-05-14T00:05:24.192Z,97761.81
2023-05-14T00:07:51.051Z,97754.19
2023-05-14T00:10:19.455Z,97753.72
2023-05-14T00:12:46.600Z,97761.47
2023-05-14T00:15:13.905Z,97755.50
2023-05-14T00:17:40.993Z,97746.59
2023-05-14T00:20:08.493Z,97742.66
2023-05-14T00:22:37.426Z,97743.50
2023-05-14T00:25:04.772Z,97739.81
2023-05-14T00:27:31.596Z,97728.94
2023-05-14T00:29:58.465Z,97727.63
2023-05-14T00:32:25.664Z,97727.16
2023-05-14T00:34:52.520Z,97725.59
2023-05-14T00:37:19.499Z,97722.66
2023-05-14T00:39:46.377Z,97717.63
2023-05-14T00:42:13.290Z,97718.00
2023-05-14T00:44:40.204Z,97712.84
2023-05-14T00:47:08.342Z,97707.13
2023-05-14T00:49:35.706Z,97711.63
2023-05-14T00:52:02.868Z,97708.09
2023-05-14T00:54:30.671Z,97712.00
2023-05-14T00:56:58.572Z,97712.38
2023-05-14T00:59:26.298Z,97713.19
2023-05-14T01:01:53.640Z,97706.38
2023-05-14T01:04:20.647Z,97694.44
2023-05-14T01:07:06.235Z,97701.63
2023-05-14T01:10:17.828Z,97682.28
2023-05-14T01:12:54.284Z,97679.88
2023-05-14T01:15:31.216Z,97683.47
2023-05-14T01:18:10.495Z,97674.84
2023-05-14T01:20:37.408Z,97681.06
2023-05-14T01:23:04.498Z,97682.72
2023-05-14T01:25:32.614Z,97679.88
2023-05-14T01:28:20.448Z,97684.19
2023-05-14T01:31:06.134Z,97677.84
2023-05-14T01:33:34.338Z,97686.31
2023-05-14T01:36:02.195Z,97683.59
2023-05-14T01:38:31.923Z,97685.09
2023-05-14T01:41:00.329Z,97676.50
2023-05-14T01:43:27.908Z,97675.78
2023-05-14T01:45:55.888Z,97667.19
2023-05-14T01:48:23.019Z,97674.13
2023-05-14T01:50:50.189Z,97675.44
2023-05-14T01:53:17.198Z,97675.19
2023-05-14T01:55:44.258Z,97683.22
2023-05-14T01:58:11.303Z,97681.88
2023-05-14T02:00:38.525Z,97692.97
2023-05-14T02:03:05.515Z,97683.53
2023-05-14T02:05:32.580Z,97684.16
2023-05-14T02:07:59.661Z,97684.13
2023-05-14T02:10:26.509Z,97685.34
2023-05-14T02:12:56.480Z,97677.16
2023-05-14T02:15:23.632Z,97675.72
2023-05-14T02:17:51.097Z,97668.69
2023-05-14T02:20:18.078Z,97672.84
2023-05-14T02:22:46.281Z,97659.44
2023-05-14T02:25:13.340Z,97673.56
2023-05-14T02:27:40.547Z,97670.09
2023-05-14T02:30:08.350Z,97664.47
2023-05-14T02:32:35.338Z,97660.88
2023-05-14T02:35:02.308Z,97662.91
2023-05-14T02:37:29.090Z,97669.13
2023-05-14T02:39:55.889Z,97674.97
2023-05-14T02:42:22.663Z,97669.25
2023-05-14T02:44:49.746Z,97677.81
2023-05-14T02:47:16.650Z,97670.19
2023-05-14T02:49:43.392Z,97670.41
2023-05-14T02:52:10.271Z,97665.50
2023-05-14T02:54:37.044Z,97679.47
2023-05-14T02:57:04.145Z,97670.66
2023-05-14T02:59:31.700Z,97664.22
2023-05-14T03:01:58.906Z,97671.59
2023-05-14T03:04:26.047Z,97663.84
2023-05-14T03:06:53.027Z,97664.88
2023-05-14T03:09:20.296Z,97651.47
2023-05-14T03:11:47.210Z,97658.28
2023-05-14T03:14:16.888Z,97652.66
2023-05-14T03:16:43.600Z,97656.72
2023-05-14T03:19:10.492Z,97661.97
2023-05-14T03:21:37.340Z,97651.44
2023-05-14T03:24:04.281Z,97664.53
2023-05-14T03:26:31.394Z,97648.50
2023-05-14T03:28:58.182Z,97652.69
2023-05-14T03:31:25.193Z,97664.63
2023-05-14T03:33:52.344Z,97670.03
2023-05-14T03:36:19.036Z,97654.69
2023-05-14T03:38:45.889Z,97659.44
2023-05-14T03:41:12.669Z,97668.56
2023-05-14T03:43:39.383Z,97669.97
2023-05-14T03:46:06.113Z,97662.09
2023-05-14T03:48:32.808Z,97661.75
2023-05-14T03:50:59.781Z,97659.28
2023-05-14T03:53:26.543Z,97672.50
2023-05-14T03:55:53.356Z,97669.16
2023-05-14T03:58:20.516Z,97673.03
2023-05-14T04:00:47.574Z,97661.16
2023-05-14T04:03:14.714Z,97674.94
2023-05-14T04:05:41.628Z,97667.34
2023-05-14T04:08:09.510Z,97668.91
2023-05-14T04:10:36.342Z,97676.44
2023-05-14T04:13:03.153Z,97670.78
2023-05-14T04:15:30.088Z,97673.59
2023-05-14T04:17:57.161Z,97681.94
2023-05-14T04:20:24.329Z,97681.09
2023-05-14T04:22:51.333Z,97690.53
2023-05-14T04:25:18.625Z,97677.75
2023-05-14T04:27:45.467Z,97685.34
2023-05-14T04:30:12.876Z,97664.38
2023-05-14T04:32:40.046Z,97666.84
2023-05-14T04:35:10.188Z,97658.47
2023-05-14T04:37:37.081Z,97658.59
2023-05-14T04:40:05.087Z,97648.66
2023-05-14T04:42:31.816Z,97634.31
2023-05-14T04:44:58.949Z,97637.06
2023-05-14T04:47:26.650Z,97632.25
2023-05-14T04:49:53.684Z,97636.06
2023-05-14T04:52:20.736Z,97631.84
2023-05-14T04:54:47.718Z,97640.75
2023-05-14T04:57:14.662Z,97637.97
2023-05-14T04:59:41.413Z,97642.47
2023-05-14T05:02:08.233Z,97642.31
2023-05-14T05:04:35.159Z,97647.25
2023-05-14T05:07:02.265Z,97648.94
2023-05-14T05:09:29.066Z,97650.13
2023-05-14T05:11:57.041Z,97643.31
2023-05-14T05:14:23.796Z,97646.63
2023-05-14T05:16:51.551Z,97648.41
2023-05-14T05:19:43.044Z,97638.81
2023-05-14T05:22:10.628Z,97643.63
2023-05-14T05:24:39.216Z,97639.34
2023-05-14T05:27:06.710Z,97639.59
2023-05-14T05:29:33.622Z,97638.63
2023-05-14T05:32:00.880Z,97639.94
2023-05-14T05:34:28.389Z,97644.66
2023-05-14T05:36:55.583Z,97649.69
2023-05-14T05:39:24.227Z,97646.88
2023-05-14T05:41:51.300Z,97653.41
2023-05-14T05:44:18.027Z,97659.38
2023-05-14T05:46:46.133Z,97654.31
2023-05-14T05:49:13.062Z,97673.06
2023-05-14T05:51:39.876Z,97678.19
2023-05-14T05:54:06.594Z,97672.28
2023-05-14T05:56:33.472Z,97678.28
2023-05-14T05:59:00.613Z,97674.66
2023-05-14T06:01:27.367Z,97665.88
2023-05-14T06:03:54.047Z,97670.13
2023-05-14T06:06:23.872Z,97671.69
2023-05-14T06:08:50.865Z,97670.53
2023-05-14T06:11:23.446Z,97669.91
2023-05-14T06:13:50.711Z,97666.28
2023-05-14T06:16:17.576Z,97673.59
2023-05-14T06:18:44.366Z,97673.94
2023-05-14T06:21:11.531Z,97668.94
2023-05-14T06:23:38.271Z,97671.63
2023-05-14T06:26:05.150Z,97660.63
2023-05-14T06:28:31.924Z,97658.97
2023-05-14T06:30:59.850Z,97672.97
2023-05-14T06:33:31.083Z,97680.03
2023-05-14T06:36:04.243Z,97685.09
2023-05-14T06:38:31.262Z,97689.47
2023-05-14T06:40:57.972Z,97699.09
2023-05-14T06:43:24.778Z,97695.41
2023-05-14T06:45:52.375Z,97698.91
2023-05-14T06:48:20.393Z,97690.78
2023-05-14T06:50:50.452Z,97709.06
2023-05-14T06:53:17.368Z,97715.22
2023-05-14T06:55:44.181Z,97719.91
2023-05-14T06:58:10.946Z,97728.88
2023-05-14T07:00:37.994Z,97731.69
2023-05-14T07:03:05.041Z,97736.00
2023-05-14T07:05:32.272Z,97735.00
2023-05-14T07:07:59.254Z,97728.00
2023-05-14T07:10:26.552Z,97744.31
2023-05-14T07:12:55.485Z,97731.19
2023-05-14T07:15:22.292Z,97722.38
2023-05-14T07:17:49.689Z,97727.00
2023-05-14T07:20:16.914Z,97730.00
2023-05-14T07:22:48.193Z,97732.34
2023-05-14T07:25:15.746Z,97732.34
2023-05-14T07:27:43.054Z,97740.66
2023-05-14T07:30:10.820Z,97745.31
2023-05-14T07:32:40.674Z,97752.59
2023-05-14T07:35:08.682Z,97749.66
2023-05-14T07:37:35.989Z,97747.28
2023-05-14T07:40:03.206Z,97746.47
2023-05-14T07:42:36.639Z,97750.28
2023-05-14T07:45:13.294Z,97760.94
2023-05-14T07:47:41.052Z,97751.63
2023-05-14T07:50:08.920Z,97747.31
2023-05-14T07:52:35.999Z,97750.31
2023-05-14T07:55:04.549Z,97741.66
2023-05-14T07:57:31.323Z,97744.16
2023-05-14T07:59:58.251Z,97746.66
2023-05-14T08:02:31.397Z,97737.16
2023-05-14T08:05:01.880Z,97727.50
2023-05-14T08:07:30.325Z,97743.66
2023-05-14T08:09:57.738Z,97739.97
2023-05-14T08:12:24.594Z,97761.28
2023-05-14T08:14:54.790Z,97761.63
2023-05-14T08:17:21.680Z,97763.25
2023-05-14T08:19:49.619Z,97760.59
2023-05-14T08:22:19.144Z,97771.56
2023-05-14T08:24:52.358Z,97770.25
2023-05-14T08:27:23.525Z,97769.22
2023-05-14T08:29:50.503Z,97766.72
2023-05-14T08:32:23.214Z,97764.56
2023-05-14T08:34:51.983Z,97759.41
2023-05-14T08:37:18.984Z,97763.25
2023-05-14T08:39:45.642Z,97774.09
2023-05-14T08:42:16.876Z,97784.06
2023-05-14T08:44:55.986Z,97787.88
2023-05-14T08:47:25.092Z,97797.50
2023-05-14T08:50:10.174Z,97794.66
2023-05-14T08:52:38.264Z,97803.81
2023-05-14T08:55:09.644Z,97796.81
2023-05-14T08:57:37.905Z,97796.50
2023-05-14T09:00:09.325Z,97799.78
2023-05-14T09:02:40.157Z,97801.91
2023-05-14T09:05:07.623Z,97798.75
2023-05-14T09:07:34.413Z,97795.41
2023-05-14T09:10:04.637Z,97787.41
2023-05-14T09:12:37.264Z,97783.97
2023-05-14T09:15:04.861Z,97790.13
2023-05-14T09:17:32.142Z,97798.09
2023-05-14T09:19:58.971Z,97800.44
2023-05-14T09:22:31.343Z,97803.00
2023-05-14T09:25:14.950Z,97800.19
2023-05-14T09:27:42.643Z,97798.16
2023-05-14T09:30:10.833Z,97791.50
2023-05-14T09:32:40.524Z,97796.34
2023-05-14T09:35:21.761Z,97787.22
2023-05-14T09:37:50.617Z,97795.84
2023-05-14T09:40:19.689Z,97793.19
2023-05-14T09:42:47.009Z,97792.84
2023-05-14T09:45:14.007Z,97782.56
2023-05-14T09:47:41.024Z,97786.34
2023-05-14T09:50:08.837Z,97777.84
2023-05-14T09:52:36.034Z,97767.81
2023-05-14T09:55:05.747Z,97768.75
2023-05-14T09:57:33.768Z,97766.94
2023-05-14T10:00:00.661Z,97755.75
2023-05-14T10:02:41.400Z,97755.50
2023-05-14T10:05:09.103Z,97751.53
2023-05-14T10:07:41.772Z,97757.72
2023-05-14T10:10:13.829Z,97756.19
2023-05-14T10:12:41.019Z,97733.94
2023-05-14T10:15:22.454Z,97735.78
2023-05-14T10:17:56.330Z,97724.44
2023-05-14T10:20:25.407Z,97724.44
2023-05-14T10:22:52.659Z,97725.56
2023-05-14T10:25:19.736Z,97709.91
2023-05-14T10:27:46.704Z,97715.19
2023-05-14T10:30:13.857Z,97707.88
2023-05-14T10:32:42.050Z,97707.53
2023-05-14T10:35:20.956Z,97707.19
2023-05-14T10:37:51.389Z,97711.56
2023-05-14T10:40:23.710Z,97703.91
2023-05-14T10:42:53.907Z,97691.41
2023-05-14T10:45:23.086Z,97683.34
2023-05-14T10:47:49.819Z,97684.81
2023-05-14T10:50:17.856Z,97691.16
2023-05-14T10:52:45.882Z,97685.28
2023-05-14T10:55:16.323Z,97664.59
2023-05-14T10:57:45.365Z,97652.97
2023-05-14T11:00:14.819Z,97654.22
2023-05-14T11:02:44.043Z,97634.47
2023-05-14T11:05:14.398Z,97641.63
2023-05-14T11:07:47.033Z,97644.81
2023-05-14T11:10:14.946Z,97652.38
2023-05-14T11:12:44.192Z,97639.41
2023-05-14T11:15:13.537Z,97632.84
2023-05-14T11:17:42.421Z,97630.09
2023-05-14T11:20:10.218Z,97629.59
2023-05-14T11:22:37.644Z,97631.06
2023-05-14T11:25:04.989Z,97627.75
2023-05-14T11:27:34.372Z,97629.16
2023-05-14T11:30:04.861Z,97618.22
2023-05-14T11:32:32.900Z,97623.91
2023-05-14T11:34:59.663Z,97615.28
2023-05-14T11:37:26.509Z,97618.44
2023-05-14T11:39:55.402Z,97603.59
2023-05-14T11:42:22.769Z,97611.06
2023-05-14T11:44:54.095Z,97608.53
2023-05-14T11:47:22.053Z,97602.94
2023-05-14T11:49:52.512Z,97607.50
2023-05-14T11:52:19.717Z,97597.34
2023-05-14T11:54:47.076Z,97600.66
2023-05-14T11:57:16.743Z,97596.03
2023-05-14T11:59:44.224Z,97591.03
2023-05-14T12:02:12.858Z,97591.09
2023-05-14T12:04:40.418Z,97585.47
2023-05-14T12:07:16.777Z,97597.75
2023-05-14T12:09:50.983Z,97593.44
2023-05-14T12:12:20.158Z,97578.84
2023-05-14T12:14:47.526Z,97574.03
2023-05-14T12:17:20.178Z,97580.19
2023-05-14T12:19:49.699Z,97571.91
2023-05-14T12:22:23.089Z,97566.72
2023-05-14T12:25:13.802Z,97582.69
2023-05-14T12:27:41.601Z,97566.25
2023-05-14T12:30:20.755Z,97571.22
2023-05-14T12:32:53.142Z,97571.56
2023-05-14T12:35:21.706Z,97569.22
2023-05-14T12:37:48.581Z,97575.84
2023-05-14T12:40:15.670Z,97575.19
2023-05-14T12:42:42.291Z,97578.88
2023-05-14T12:45:09.308Z,97573.56
2023-05-14T12:47:37.206Z,97565.22
2023-05-14T12:50:06.122Z,97561.25
2023-05-14T12:52:38.341Z,97555.25
2023-05-14T12:55:07.787Z,97546.97
2023-05-14T12:57:35.736Z,97534.03
2023-05-14T13:00:06.767Z,97524.38
2023-05-14T13:02:42.975Z,97518.41
2023-05-14T13:05:12.148Z,97505.81
2023-05-14T13:07:39.187Z,97525.06
2023-05-14T13:10:06.853Z,97524.75
2023-05-14T13:12:34.034Z,97522.75
2023-05-14T13:15:01.331Z,97517.13
2023-05-14T13:17:28.388Z,97511.31
2023-05-14T13:19:55.248Z,97504.84
2023-05-14T13:22:22.050Z,97500.19
2023-05-14T13:24:48.951Z,97496.03
2023-05-14T13:27:16.299Z,97503.16
2023-05-14T13:29:43.075Z,97504.81
2023-05-14T13:32:09.804Z,97501.81
2023-05-14T13:34:36.614Z,97496.50
2023-05-14T13:37:04.211Z,97491.19
2023-05-14T13:39:31.080Z,97481.88
2023-05-14T13:41:58.066Z,97484.50
2023-05-14T13:44:25.291Z,97488.47
2023-05-14T13:46:52.552Z,97481.47
2023-05-14T13:49:20.761Z,97481.47
2023-05-14T13:51:47.727Z,97487.09
2023-05-14T13:54:16.916Z,97484.41
2023-05-14T13:56:44.151Z,97482.28
2023-05-14T13:59:11.362Z,97482.13
2023-05-14T14:01:38.325Z,97482.66
2023-05-14T14:04:05.531Z,97481.47
2023-05-14T14:06:33.325Z,97482.78
2023-05-14T14:09:00.375Z,97477.78
2023-05-14T14:11:28.126Z,97479.31
2023-05-14T14:13:54.817Z,97473.16
2023-05-14T14:16:21.588Z,97469.81
2023-05-14T14:18:48.448Z,97465.59
2023-05-14T14:21:18.489Z,97476.72
2023-05-14T14:23:48.381Z,97476.38
2023-05-14T14:26:15.161Z,97457.13
2023-05-14T14:28:41.935Z,97468.44
2023-05-14T14:31:08.757Z,97464.03
2023-05-14T14:33:35.793Z,97460.53
2023-05-14T14:36:02.684Z,97459.41
2023-05-14T14:38:29.518Z,97466.63
2023-05-14T14:40:57.256Z,97472.59
2023-05-14T14:43:24.975Z,97470.34
2023-05-14T14:45:54.932Z,97472.63
2023-05-14T14:48:27.635Z,97474.66
2023-05-14T14:50:56.467Z,97470.31
2023-05-14T14:53:23.894Z,97470.81
2023-05-14T14:55:51.761Z,97473.66
2023-05-14T14:58:19.936Z,97463.19
2023-05-14T15:00:47.687Z,97453.78
2023-05-14T15:03:15.189Z,97443.78
2023-05-14T15:05:42.582Z,97451.75
2023-05-14T15:08:09.738Z,97445.47
2023-05-14T15:10:38.372Z,97450.78
2023-05-14T15:13:06.599Z,97445.78
2023-05-14T15:15:34.580Z,97439.16
2023-05-14T15:18:01.977Z,97434.16
2023-05-14T15:20:29.122Z,97440.16
2023-05-14T15:22:56.118Z,97440.31
2023-05-14T15:25:25.110Z,97431.88
2023-05-14T15:27:54.245Z,97435.50
2023-05-14T15:30:21.004Z,97423.88
2023-05-14T15:32:48.103Z,97431.16
2023-05-14T15:35:15.154Z,97429.84
2023-05-14T15:37:43.838Z,97437.47
2023-05-14T15:40:11.554Z,97415.41
2023-05-14T15:42:42.201Z,97412.09
2023-05-14T15:45:12.966Z,97423.19
2023-05-14T15:47:40.357Z,97423.19
2023-05-14T15:50:08.557Z,97413.59
2023-05-14T15:52:36.588Z,97421.06
2023-05-14T15:55:05.353Z,97414.59
2023-05-14T15:57:32.463Z,97415.25
2023-05-14T15:59:59.525Z,97414.59
2023-05-14T16:02:30.360Z,97407.28
2023-05-14T16:04:57.546Z,97407.97
2023-05-14T16:07:24.377Z,97397.81
2023-05-14T16:09:52.008Z,97402.31
2023-05-14T16:12:19.006Z,97407.97
2023-05-14T16:14:46.892Z,97410.75
2023-05-14T16:17:14.667Z,97407.78
2023-05-14T16:19:44.586Z,97416.91
2023-05-14T16:22:11.533Z,97407.97
2023-05-14T16:24:38.567Z,97409.28
2023-05-14T16:29:33.768Z,97401.34
2023-05-14T16:32:06.556Z,97396.19
2023-05-14T16:34:33.381Z,97405.47
2023-05-14T16:37:00.866Z,97410.94
2023-05-14T16:39:28.460Z,97413.91
2023-05-14T16:41:58.475Z,97416.75
2023-05-14T16:44:25.843Z,97408.13
2023-05-14T16:46:52.940Z,97405.31
2023-05-14T16:49:23.199Z,97408.28
2023-05-14T16:51:50.181Z,97403.50
2023-05-14T16:54:17.589Z,97404.63
2023-05-14T16:56:48.450Z,97402.16
2023-05-14T16:59:16.165Z,97401.97
2023-05-14T17:01:44.475Z,97411.41
2023-05-14T17:04:18.545Z,97400.81
2023-05-14T17:06:47.157Z,97399.97
2023-05-14T17:09:13.933Z,97388.72
2023-05-14T17:11:50.029Z,97397.31
2023-05-14T17:14:19.838Z,97390.88
2023-05-14T17:16:46.669Z,97390.19
2023-05-14T17:19:13.669Z,97405.28
2023-05-14T17:21:43.574Z,97407.25
2023-05-14T17:24:10.235Z,97419.16
2023-05-14T17:26:38.048Z,97398.16
2023-05-14T17:29:04.637Z,97406.41
2023-05-14T17:31:31.820Z,97406.28
2023-05-14T17:33:59.222Z,97407.56
2023-05-14T17:36:26.384Z,97393.66
2023-05-14T17:38:53.179Z,97400.81
2023-05-14T17:41:20.185Z,97391.03
2023-05-14T17:43:46.948Z,97400.81
2023-05-14T17:46:13.881Z,97393.69
2023-05-14T17:48:40.990Z,97397.31
2023-05-14T17:51:07.732Z,97397.00
2023-05-14T17:53:34.942Z,97406.78
2023-05-14T17:56:02.125Z,97395.69
2023-05-14T17:58:29.268Z,97393.19
2023-05-14T18:00:56.960Z,97393.84
2023-05-14T18:03:26.829Z,97402.31
2023-05-14T18:05:54.001Z,97404.31
2023-05-14T18:08:21.121Z,97409.25
2023-05-14T18:10:48.143Z,97411.59
2023-05-14T18:13:15.511Z,97415.91
2023-05-14T18:15:42.515Z,97414.06
2023-05-14T18:18:10.220Z,97409.63
2023-05-14T18:20:37.250Z,97413.59
2023-05-14T18:23:04.107Z,97409.63
2023-05-14T18:25:31.176Z,97411.09
2023-05-14T18:27:58.154Z,97413.28
2023-05-14T18:30:25.080Z,97420.88
2023-05-14T18:32:52.040Z,97413.91
2023-05-14T18:35:19.460Z,97423.38
2023-05-14T18:37:49.336Z,97410.25
2023-05-14T18:40:18.487Z,97417.22
2023-05-14T18:42:49.934Z,97422.88
2023-05-14T18:45:37.599Z,97433.13
2023-05-14T18:48:12.127Z,97426.66
2023-05-14T18:50:42.086Z,97428.16
2023-05-14T18:55:50.306Z,97403.78
2023-05-14T18:58:18.231Z,97400.97
2023-05-14T19:00:45.373Z,97404.63
2023-05-14T19:03:12.302Z,97387.53
2023-05-14T19:05:39.299Z,97380.75
2023-05-14T19:08:06.718Z,97373.13
2023-05-14T19:10:35.307Z,97355.56
2023-05-14T19:13:02.295Z,97365.34
2023-05-14T19:15:29.106Z,97359.53
2023-05-14T19:17:56.007Z,97349.09
2023-05-14T19:20:23.129Z,97341.66
2023-05-14T19:22:50.144Z,97341.78
2023-05-14T19:25:17.344Z,97331.00
2023-05-14T19:27:51.351Z,97329.38
2023-05-14T19:30:49.818Z,97332.69
2023-05-14T19:33:20.331Z,97329.69
2023-05-14T19:35:47.891Z,97334.16
2023-05-14T19:38:15.131Z,97315.94
2023-05-14T19:40:43.664Z,97322.41
2023-05-14T19:43:12.066Z,97327.72
2023-05-14T19:45:39.472Z,97329.03
2023-05-14T19:48:06.757Z,97320.78
2023-05-14T19:50:37.183Z,97321.78
2023-05-14T19:53:05.002Z,97317.63
2023-05-14T19:55:32.189Z,97314.28
2023-05-14T19:58:00.341Z,97319.75
2023-05-14T20:00:27.997Z,97324.41
2023-05-14T20:02:56.041Z,97320.09
2023-05-14T20:05:32.508Z,97329.72
2023-05-14T20:07:59.894Z,97330.88
2023-05-14T20:10:33.246Z,97333.34
2023-05-14T20:13:00.641Z,97337.00
2023-05-14T20:15:30.459Z,97326.06
2023-05-14T20:18:03.090Z,97314.47
2023-05-14T20:20:33.048Z,97315.63
2023-05-14T20:23:01.301Z,97329.72
2023-05-14T20:25:37.656Z,97326.06
2023-05-14T20:28:04.876Z,97326.38
2023-05-14T20:30:32.845Z,97312.31
2023-05-14T20:33:02.805Z,97304.38
2023-05-14T20:35:30.550Z,97297.91
2023-05-14T20:37:57.924Z,97294.59
2023-05-14T20:40:25.717Z,97291.28
2023-05-14T20:42:52.699Z,97280.31
2023-05-14T20:45:19.977Z,97285.31
2023-05-14T20:47:46.885Z,97278.69
2023-05-14T20:50:14.239Z,97282.16
2023-05-14T20:52:41.171Z,97291.78
2023-05-14T20:55:08.705Z,97286.47
2023-05-14T20:57:40.114Z,97300.88
2023-05-14T21:00:10.240Z,97297.72
2023-05-14T21:02:37.995Z,97288.78
2023-05-14T21:05:05.757Z,97283.00
2023-05-14T21:07:33.320Z,97284.66
2023-05-14T21:10:00.434Z,97282.66
2023-05-14T21:12:30.243Z,97280.00
2023-05-14T21:15:00.404Z,97271.53
2023-05-14T21:17:32.646Z,97269.41
2023-05-14T21:19:59.590Z,97271.88
2023-05-14T21:22:27.729Z,97259.13
2023-05-14T21:24:55.970Z,97243.88
2023-05-14T21:27:23.571Z,97253.47
2023-05-14T21:29:50.630Z,97253.81
2023-05-14T21:32:18.448Z,97242.88
2023-05-14T21:34:45.537Z,97248.69
2023-05-14T21:37:12.626Z,97236.75
2023-05-14T21:39:39.786Z,97239.38
2023-05-14T21:42:07.435Z,97236.56
2023-05-14T21:44:34.580Z,97226.28
2023-05-14T21:47:02.218Z,97230.75
2023-05-14T21:49:29.223Z,97235.91
2023-05-14T21:51:56.166Z,97235.22
2023-05-14T21:54:22.968Z,97223.97
2023-05-14T21:56:50.014Z,97222.13
2023-05-14T21:59:17.008Z,97214.34
2023-05-14T22:04:15.108Z,97214.16
2023-05-14T22:06:42.544Z,97212.31
2023-05-14T22:09:15.622Z,97203.38
2023-05-14T22:11:42.504Z,97214.66
2023-05-14T22:14:09.482Z,97195.09
2023-05-14T22:16:37.453Z,97197.72
2023-05-14T22:19:07.613Z,97192.25
2023-05-14T22:21:34.616Z,97193.03
2023-05-14T22:24:01.406Z,97196.34
2023-05-14T22:26:28.395Z,97197.50
2023-05-14T22:28:57.146Z,97191.00
2023-05-14T22:31:24.206Z,97192.94
2023-05-14T22:33:51.258Z,97181.63
2023-05-14T22:36:20.330Z,97180.47
2023-05-14T22:38:49.422Z,97178.56
2023-05-14T22:41:17.709Z,97170.00
2023-05-14T22:43:44.672Z,97171.16
2023-05-14T22:46:11.681Z,97164.88
2023-05-14T22:48:49.405Z,97159.72
2023-05-14T22:51:16.948Z,97148.06
2023-05-14T22:53:44.065Z,97150.38
2023-05-14T22:56:11.084Z,97145.59
2023-05-14T22:58:38.459Z,97145.75
2023-05-14T23:01:05.887Z,97137.09
2023-05-14T23:03:32.848Z,97149.91
2023-05-14T23:05:59.589Z,97152.56
2023-05-14T23:08:26.456Z,97152.03
2023-05-14T23:10:53.231Z,97144.78
2023-05-14T23:13:22.930Z,97144.25
2023-05-14T23:15:50.228Z,97149.56
2023-05-14T23:18:17.602Z,97141.75
2023-05-14T23:20:44.861Z,97148.38
2023-05-14T23:23:12.112Z,97150.19
2023-05-14T23:25:39.686Z,97142.69
2023-05-14T23:28:07.299Z,97135.72
2023-05-14T23:30:35.787Z,97147.19
2023-05-14T23:33:03.287Z,97142.22
2023-05-14T23:35:30.670Z,97147.19
2023-05-14T23:37:58.135Z,97146.81
2023-05-14T23:40:25.222Z,97140.22
2023-05-14T23:42:52.661Z,97139.63
2023-05-14T23:45:19.855Z,97136.69
2023-05-14T23:47:47.077Z,97136.69
2023-05-14T23:50:14.311Z,97130.91
2023-05-14T23:52:41.350Z,97136.09
2023-05-14T23:55:08.652Z,97144.59
2023-05-14T23:57:35.980Z,97130.50
